sensor_id;sensor_type;location;lat;lon;timestamp;P1;durP1;ratioP1;P2;durP2;ratioP2
3253;SDS011;1639;42.804;23.342;2024-03-22T00:00:33;20.63;;;16.37;;
3253;SDS011;1639;42.804;23.342;2024-03-22T00:02:58;16.30;;;12.73;;
3253;SDS011;1639;42.804;23.342;2024-03-22T00:05:24;17.93;;;13.27;;
3253;SDS011;1639;42.804;23.342;2024-03-22T00:07:49;19.83;;;12.67;;
3253;SDS011;1639;42.804;23.342;2024-03-22T00:10:15;16.40;;;14.27;;
3253;SDS011;1639;42.804;23.342;2024-03-22T00:12:40;29.33;;;18.80;;
3253;SDS011;1639;42.804;23.342;2024-03-22T00:15:06;35.20;;;22.30;;
3253;SDS011;1639;42.804;23.342;2024-03-22T00:17:31;27.50;;;20.40;;
3253;SDS011;1639;42.804;23.342;2024-03-22T00:19:58;17.63;;;13.50;;
3253;SDS011;1639;42.804;23.342;2024-03-22T00:22:24;41.40;;;35.57;;
3253;SDS011;1639;42.804;23.342;2024-03-22T00:24:49;21.73;;;16.13;;
3253;SDS011;1639;42.804;23.342;2024-03-22T00:27:14;32.77;;;13.43;;
3253;SDS011;1639;42.804;23.342;2024-03-22T00:29:40;37.67;;;31.07;;
3253;SDS011;1639;42.804;23.342;2024-03-22T00:32:06;21.97;;;12.43;;
3253;SDS011;1639;42.804;23.342;2024-03-22T00:34:32;20.53;;;15.83;;
3253;SDS011;1639;42.804;23.342;2024-03-22T00:36:58;11.13;;;5.30;;
3253;SDS011;1639;42.804;23.342;2024-03-22T00:39:24;7.40;;;3.80;;
3253;SDS011;1639;42.804;23.342;2024-03-22T00:41:49;9.30;;;4.30;;
3253;SDS011;1639;42.804;23.342;2024-03-22T00:44:14;7.63;;;5.10;;
3253;SDS011;1639;42.804;23.342;2024-03-22T00:46:40;7.00;;;5.20;;
3253;SDS011;1639;42.804;23.342;2024-03-22T00:49:05;7.33;;;4.00;;
3253;SDS011;1639;42.804;23.342;2024-03-22T00:51:31;17.20;;;14.00;;
3253;SDS011;1639;42.804;23.342;2024-03-22T00:53:56;8.77;;;4.40;;
3253;SDS011;1639;42.804;23.342;2024-03-22T00:56:21;10.07;;;5.33;;
3253;SDS011;1639;42.804;23.342;2024-03-22T00:58:47;7.73;;;4.77;;
3253;SDS011;1639;42.804;23.342;2024-03-22T01:01:12;9.10;;;4.60;;
3253;SDS011;1639;42.804;23.342;2024-03-22T01:03:38;8.20;;;3.30;;
3253;SDS011;1639;42.804;23.342;2024-03-22T01:06:04;8.20;;;4.57;;
3253;SDS011;1639;42.804;23.342;2024-03-22T01:08:29;7.20;;;3.60;;
3253;SDS011;1639;42.804;23.342;2024-03-22T01:10:54;6.00;;;3.43;;
3253;SDS011;1639;42.804;23.342;2024-03-22T01:13:20;6.50;;;3.30;;
3253;SDS011;1639;42.804;23.342;2024-03-22T01:15:45;6.40;;;3.70;;
3253;SDS011;1639;42.804;23.342;2024-03-22T01:18:11;7.77;;;4.07;;
3253;SDS011;1639;42.804;23.342;2024-03-22T01:20:37;8.10;;;4.67;;
3253;SDS011;1639;42.804;23.342;2024-03-22T01:23:02;15.93;;;5.63;;
3253;SDS011;1639;42.804;23.342;2024-03-22T01:25:27;10.00;;;4.90;;
3253;SDS011;1639;42.804;23.342;2024-03-22T01:27:53;8.50;;;5.47;;
3253;SDS011;1639;42.804;23.342;2024-03-22T01:30:18;8.50;;;5.70;;
3253;SDS011;1639;42.804;23.342;2024-03-22T01:32:44;8.70;;;5.10;;
3253;SDS011;1639;42.804;23.342;2024-03-22T01:35:09;13.07;;;9.23;;
3253;SDS011;1639;42.804;23.342;2024-03-22T01:37:34;16.63;;;10.17;;
3253;SDS011;1639;42.804;23.342;2024-03-22T01:40:00;8.80;;;6.37;;
3253;SDS011;1639;42.804;23.342;2024-03-22T01:42:25;10.13;;;4.67;;
3253;SDS011;1639;42.804;23.342;2024-03-22T01:44:51;8.13;;;5.00;;
3253;SDS011;1639;42.804;23.342;2024-03-22T01:47:16;10.17;;;6.03;;
3253;SDS011;1639;42.804;23.342;2024-03-22T01:49:42;9.93;;;5.43;;
3253;SDS011;1639;42.804;23.342;2024-03-22T01:52:08;9.20;;;5.50;;
3253;SDS011;1639;42.804;23.342;2024-03-22T01:54:34;7.93;;;4.33;;
3253;SDS011;1639;42.804;23.342;2024-03-22T01:56:59;9.63;;;6.57;;
3253;SDS011;1639;42.804;23.342;2024-03-22T01:59:25;9.33;;;4.90;;
3253;SDS011;1639;42.804;23.342;2024-03-22T02:01:51;8.90;;;5.40;;
3253;SDS011;1639;42.804;23.342;2024-03-22T02:04:17;7.40;;;4.97;;
3253;SDS011;1639;42.804;23.342;2024-03-22T02:06:42;9.13;;;5.40;;
3253;SDS011;1639;42.804;23.342;2024-03-22T02:09:08;9.93;;;6.10;;
3253;SDS011;1639;42.804;23.342;2024-03-22T02:11:34;10.27;;;5.60;;
3253;SDS011;1639;42.804;23.342;2024-03-22T02:14:01;11.47;;;5.43;;
3253;SDS011;1639;42.804;23.342;2024-03-22T02:16:26;7.03;;;4.57;;
3253;SDS011;1639;42.804;23.342;2024-03-22T02:18:51;10.53;;;6.90;;
3253;SDS011;1639;42.804;23.342;2024-03-22T02:21:17;11.53;;;6.20;;
3253;SDS011;1639;42.804;23.342;2024-03-22T02:23:42;10.20;;;7.33;;
3253;SDS011;1639;42.804;23.342;2024-03-22T02:26:08;8.10;;;5.30;;
3253;SDS011;1639;42.804;23.342;2024-03-22T02:28:34;21.13;;;6.80;;
3253;SDS011;1639;42.804;23.342;2024-03-22T02:31:01;7.60;;;5.50;;
3253;SDS011;1639;42.804;23.342;2024-03-22T02:33:27;7.10;;;4.90;;
3253;SDS011;1639;42.804;23.342;2024-03-22T02:35:52;7.70;;;6.00;;
3253;SDS011;1639;42.804;23.342;2024-03-22T02:38:18;8.70;;;5.50;;
3253;SDS011;1639;42.804;23.342;2024-03-22T02:40:44;15.13;;;7.10;;
3253;SDS011;1639;42.804;23.342;2024-03-22T02:43:10;9.40;;;6.27;;
3253;SDS011;1639;42.804;23.342;2024-03-22T02:45:36;11.50;;;5.63;;
3253;SDS011;1639;42.804;23.342;2024-03-22T02:48:01;8.80;;;5.30;;
3253;SDS011;1639;42.804;23.342;2024-03-22T02:50:27;14.20;;;6.80;;
3253;SDS011;1639;42.804;23.342;2024-03-22T02:52:52;7.00;;;4.63;;
3253;SDS011;1639;42.804;23.342;2024-03-22T02:55:18;8.43;;;5.30;;
3253;SDS011;1639;42.804;23.342;2024-03-22T02:57:43;12.07;;;7.87;;
3253;SDS011;1639;42.804;23.342;2024-03-22T03:00:09;9.97;;;6.33;;
3253;SDS011;1639;42.804;23.342;2024-03-22T03:02:34;10.93;;;8.20;;
3253;SDS011;1639;42.804;23.342;2024-03-22T03:05:00;13.20;;;7.47;;
3253;SDS011;1639;42.804;23.342;2024-03-22T03:07:26;18.47;;;11.00;;
3253;SDS011;1639;42.804;23.342;2024-03-22T03:09:52;10.50;;;5.67;;
3253;SDS011;1639;42.804;23.342;2024-03-22T03:12:18;7.53;;;3.83;;
3253;SDS011;1639;42.804;23.342;2024-03-22T03:14:43;12.30;;;4.20;;
3253;SDS011;1639;42.804;23.342;2024-03-22T03:17:08;9.23;;;4.80;;
3253;SDS011;1639;42.804;23.342;2024-03-22T03:19:34;9.27;;;5.17;;
3253;SDS011;1639;42.804;23.342;2024-03-22T03:21:59;8.50;;;5.90;;
3253;SDS011;1639;42.804;23.342;2024-03-22T03:24:25;10.77;;;6.07;;
3253;SDS011;1639;42.804;23.342;2024-03-22T03:26:50;12.73;;;5.47;;
3253;SDS011;1639;42.804;23.342;2024-03-22T03:29:15;11.53;;;6.27;;
3253;SDS011;1639;42.804;23.342;2024-03-22T03:31:41;16.60;;;7.40;;
3253;SDS011;1639;42.804;23.342;2024-03-22T03:34:06;11.53;;;6.87;;
3253;SDS011;1639;42.804;23.342;2024-03-22T03:36:31;12.50;;;6.53;;
3253;SDS011;1639;42.804;23.342;2024-03-22T03:38:57;10.03;;;6.40;;
3253;SDS011;1639;42.804;23.342;2024-03-22T03:41:22;20.33;;;5.83;;
3253;SDS011;1639;42.804;23.342;2024-03-22T03:43:48;12.47;;;7.60;;
3253;SDS011;1639;42.804;23.342;2024-03-22T03:46:13;11.50;;;7.70;;
3253;SDS011;1639;42.804;23.342;2024-03-22T03:48:38;8.37;;;5.90;;
3253;SDS011;1639;42.804;23.342;2024-03-22T03:51:04;9.43;;;6.37;;
3253;SDS011;1639;42.804;23.342;2024-03-22T03:53:30;13.10;;;7.17;;
3253;SDS011;1639;42.804;23.342;2024-03-22T03:55:55;9.20;;;5.67;;
3253;SDS011;1639;42.804;23.342;2024-03-22T03:58:21;8.93;;;5.43;;
3253;SDS011;1639;42.804;23.342;2024-03-22T04:00:46;9.20;;;5.80;;
3253;SDS011;1639;42.804;23.342;2024-03-22T04:03:12;14.37;;;7.43;;
3253;SDS011;1639;42.804;23.342;2024-03-22T04:05:37;9.70;;;5.90;;
3253;SDS011;1639;42.804;23.342;2024-03-22T04:08:02;8.70;;;5.10;;
3253;SDS011;1639;42.804;23.342;2024-03-22T04:10:28;13.50;;;5.83;;
3253;SDS011;1639;42.804;23.342;2024-03-22T04:12:53;13.63;;;7.00;;
3253;SDS011;1639;42.804;23.342;2024-03-22T04:15:19;9.43;;;6.83;;
3253;SDS011;1639;42.804;23.342;2024-03-22T04:17:44;9.80;;;7.63;;
3253;SDS011;1639;42.804;23.342;2024-03-22T04:20:10;10.13;;;6.93;;
3253;SDS011;1639;42.804;23.342;2024-03-22T04:22:36;14.53;;;8.60;;
3253;SDS011;1639;42.804;23.342;2024-03-22T04:25:02;10.00;;;7.23;;
3253;SDS011;1639;42.804;23.342;2024-03-22T04:27:27;21.43;;;8.47;;
3253;SDS011;1639;42.804;23.342;2024-03-22T04:29:53;10.50;;;7.10;;
3253;SDS011;1639;42.804;23.342;2024-03-22T04:32:18;17.53;;;8.37;;
3253;SDS011;1639;42.804;23.342;2024-03-22T04:34:44;17.03;;;9.60;;
3253;SDS011;1639;42.804;23.342;2024-03-22T04:37:10;10.23;;;8.03;;
3253;SDS011;1639;42.804;23.342;2024-03-22T04:39:37;18.97;;;9.10;;
3253;SDS011;1639;42.804;23.342;2024-03-22T04:42:03;12.50;;;8.10;;
3253;SDS011;1639;42.804;23.342;2024-03-22T04:44:29;12.27;;;8.50;;
3253;SDS011;1639;42.804;23.342;2024-03-22T04:46:55;13.07;;;7.47;;
3253;SDS011;1639;42.804;23.342;2024-03-22T04:49:20;15.50;;;9.10;;
3253;SDS011;1639;42.804;23.342;2024-03-22T04:51:45;11.80;;;6.93;;
3253;SDS011;1639;42.804;23.342;2024-03-22T04:54:11;9.03;;;7.47;;
3253;SDS011;1639;42.804;23.342;2024-03-22T04:56:37;12.20;;;8.60;;
3253;SDS011;1639;42.804;23.342;2024-03-22T04:59:02;14.30;;;7.87;;
3253;SDS011;1639;42.804;23.342;2024-03-22T05:01:27;9.53;;;7.40;;
3253;SDS011;1639;42.804;23.342;2024-03-22T05:03:53;38.20;;;13.10;;
3253;SDS011;1639;42.804;23.342;2024-03-22T05:06:19;13.80;;;7.13;;
3253;SDS011;1639;42.804;23.342;2024-03-22T05:08:45;18.70;;;9.23;;
3253;SDS011;1639;42.804;23.342;2024-03-22T05:11:10;14.70;;;7.50;;
3253;SDS011;1639;42.804;23.342;2024-03-22T05:13:35;16.90;;;9.80;;
3253;SDS011;1639;42.804;23.342;2024-03-22T05:16:01;17.80;;;7.17;;
3253;SDS011;1639;42.804;23.342;2024-03-22T05:18:26;15.57;;;7.50;;
3253;SDS011;1639;42.804;23.342;2024-03-22T05:20:52;14.63;;;8.30;;
3253;SDS011;1639;42.804;23.342;2024-03-22T05:23:17;10.43;;;6.97;;
3253;SDS011;1639;42.804;23.342;2024-03-22T05:25:43;10.53;;;8.83;;
3253;SDS011;1639;42.804;23.342;2024-03-22T05:28:08;25.57;;;8.57;;
3253;SDS011;1639;42.804;23.342;2024-03-22T05:30:34;16.33;;;8.63;;
3253;SDS011;1639;42.804;23.342;2024-03-22T05:32:59;20.40;;;14.70;;
3253;SDS011;1639;42.804;23.342;2024-03-22T05:35:24;14.93;;;10.60;;
3253;SDS011;1639;42.804;23.342;2024-03-22T05:37:50;15.97;;;10.43;;
3253;SDS011;1639;42.804;23.342;2024-03-22T05:40:15;11.73;;;8.33;;
3253;SDS011;1639;42.804;23.342;2024-03-22T05:42:41;14.53;;;8.57;;
3253;SDS011;1639;42.804;23.342;2024-03-22T05:45:07;12.87;;;8.77;;
3253;SDS011;1639;42.804;23.342;2024-03-22T05:47:33;18.47;;;10.10;;
3253;SDS011;1639;42.804;23.342;2024-03-22T05:49:59;19.33;;;11.27;;
3253;SDS011;1639;42.804;23.342;2024-03-22T05:52:24;14.37;;;12.07;;
3253;SDS011;1639;42.804;23.342;2024-03-22T05:54:50;19.07;;;12.00;;
3253;SDS011;1639;42.804;23.342;2024-03-22T05:57:16;15.33;;;12.33;;
3253;SDS011;1639;42.804;23.342;2024-03-22T05:59:41;15.30;;;10.93;;
3253;SDS011;1639;42.804;23.342;2024-03-22T06:02:07;17.87;;;11.67;;
3253;SDS011;1639;42.804;23.342;2024-03-22T06:04:32;17.93;;;10.50;;
3253;SDS011;1639;42.804;23.342;2024-03-22T06:06:58;32.10;;;15.57;;
3253;SDS011;1639;42.804;23.342;2024-03-22T06:09:25;13.07;;;9.50;;
3253;SDS011;1639;42.804;23.342;2024-03-22T06:12:10;21.83;;;11.20;;
3253;SDS011;1639;42.804;23.342;2024-03-22T06:14:37;21.97;;;11.83;;
3253;SDS011;1639;42.804;23.342;2024-03-22T06:17:03;28.40;;;13.07;;
3253;SDS011;1639;42.804;23.342;2024-03-22T06:19:29;18.57;;;11.53;;
3253;SDS011;1639;42.804;23.342;2024-03-22T06:21:54;20.80;;;12.70;;
3253;SDS011;1639;42.804;23.342;2024-03-22T06:24:19;21.13;;;15.07;;
3253;SDS011;1639;42.804;23.342;2024-03-22T06:26:45;22.40;;;13.87;;
3253;SDS011;1639;42.804;23.342;2024-03-22T06:29:10;19.90;;;13.00;;
3253;SDS011;1639;42.804;23.342;2024-03-22T06:31:36;20.77;;;12.80;;
3253;SDS011;1639;42.804;23.342;2024-03-22T06:34:01;19.70;;;13.77;;
3253;SDS011;1639;42.804;23.342;2024-03-22T06:36:30;19.23;;;13.47;;
3253;SDS011;1639;42.804;23.342;2024-03-22T06:38:57;25.53;;;19.90;;
3253;SDS011;1639;42.804;23.342;2024-03-22T06:41:22;37.70;;;27.07;;
3253;SDS011;1639;42.804;23.342;2024-03-22T06:43:47;23.70;;;16.30;;
3253;SDS011;1639;42.804;23.342;2024-03-22T06:46:13;20.60;;;15.43;;
3253;SDS011;1639;42.804;23.342;2024-03-22T06:48:38;22.13;;;13.10;;
3253;SDS011;1639;42.804;23.342;2024-03-22T06:51:04;25.87;;;14.23;;
3253;SDS011;1639;42.804;23.342;2024-03-22T06:53:29;15.03;;;12.07;;
3253;SDS011;1639;42.804;23.342;2024-03-22T06:55:54;15.70;;;9.77;;
3253;SDS011;1639;42.804;23.342;2024-03-22T06:58:20;23.33;;;10.80;;
3253;SDS011;1639;42.804;23.342;2024-03-22T07:00:46;11.63;;;8.53;;
3253;SDS011;1639;42.804;23.342;2024-03-22T07:03:11;24.73;;;11.90;;
3253;SDS011;1639;42.804;23.342;2024-03-22T07:05:36;21.60;;;14.03;;
3253;SDS011;1639;42.804;23.342;2024-03-22T07:08:02;26.60;;;14.80;;
3253;SDS011;1639;42.804;23.342;2024-03-22T07:10:27;36.63;;;15.10;;
3253;SDS011;1639;42.804;23.342;2024-03-22T07:12:56;25.20;;;14.47;;
3253;SDS011;1639;42.804;23.342;2024-03-22T07:15:22;26.13;;;13.33;;
3253;SDS011;1639;42.804;23.342;2024-03-22T07:17:48;24.37;;;14.40;;
3253;SDS011;1639;42.804;23.342;2024-03-22T07:20:14;18.80;;;13.37;;
3253;SDS011;1639;42.804;23.342;2024-03-22T07:22:39;32.43;;;11.63;;
3253;SDS011;1639;42.804;23.342;2024-03-22T07:25:05;17.20;;;11.80;;
3253;SDS011;1639;42.804;23.342;2024-03-22T07:27:30;13.97;;;10.50;;
3253;SDS011;1639;42.804;23.342;2024-03-22T07:29:56;19.07;;;13.00;;
3253;SDS011;1639;42.804;23.342;2024-03-22T07:32:22;32.27;;;12.57;;
3253;SDS011;1639;42.804;23.342;2024-03-22T07:34:47;21.97;;;12.43;;
3253;SDS011;1639;42.804;23.342;2024-03-22T07:37:13;20.40;;;9.70;;
3253;SDS011;1639;42.804;23.342;2024-03-22T07:39:38;15.27;;;10.40;;
3253;SDS011;1639;42.804;23.342;2024-03-22T07:42:03;18.80;;;12.77;;
3253;SDS011;1639;42.804;23.342;2024-03-22T07:44:29;11.40;;;9.60;;
3253;SDS011;1639;42.804;23.342;2024-03-22T07:46:54;13.27;;;10.90;;
3253;SDS011;1639;42.804;23.342;2024-03-22T07:49:20;23.13;;;10.53;;
3253;SDS011;1639;42.804;23.342;2024-03-22T07:51:46;13.53;;;9.63;;
3253;SDS011;1639;42.804;23.342;2024-03-22T07:54:11;17.07;;;9.93;;
3253;SDS011;1639;42.804;23.342;2024-03-22T07:56:37;11.77;;;8.30;;
3253;SDS011;1639;42.804;23.342;2024-03-22T07:59:02;17.00;;;10.73;;
3253;SDS011;1639;42.804;23.342;2024-03-22T08:01:27;17.33;;;9.90;;
3253;SDS011;1639;42.804;23.342;2024-03-22T08:03:53;11.20;;;7.40;;
3253;SDS011;1639;42.804;23.342;2024-03-22T08:06:18;10.77;;;7.60;;
3253;SDS011;1639;42.804;23.342;2024-03-22T08:08:44;10.10;;;7.33;;
3253;SDS011;1639;42.804;23.342;2024-03-22T08:11:10;7.87;;;5.07;;
3253;SDS011;1639;42.804;23.342;2024-03-22T08:13:35;9.13;;;5.70;;
3253;SDS011;1639;42.804;23.342;2024-03-22T08:16:01;14.67;;;8.30;;
3253;SDS011;1639;42.804;23.342;2024-03-22T08:18:26;10.63;;;6.27;;
3253;SDS011;1639;42.804;23.342;2024-03-22T08:20:52;9.80;;;6.40;;
3253;SDS011;1639;42.804;23.342;2024-03-22T08:23:17;8.87;;;5.40;;
3253;SDS011;1639;42.804;23.342;2024-03-22T08:25:45;10.30;;;6.23;;
3253;SDS011;1639;42.804;23.342;2024-03-22T08:28:11;13.77;;;5.60;;
3253;SDS011;1639;42.804;23.342;2024-03-22T08:30:38;21.03;;;8.97;;
3253;SDS011;1639;42.804;23.342;2024-03-22T08:33:04;10.60;;;7.80;;
3253;SDS011;1639;42.804;23.342;2024-03-22T08:35:29;18.27;;;7.43;;
3253;SDS011;1639;42.804;23.342;2024-03-22T08:37:55;7.70;;;5.00;;
3253;SDS011;1639;42.804;23.342;2024-03-22T08:40:21;13.83;;;5.13;;
3253;SDS011;1639;42.804;23.342;2024-03-22T08:42:48;14.97;;;6.17;;
3253;SDS011;1639;42.804;23.342;2024-03-22T08:45:13;7.90;;;6.13;;
3253;SDS011;1639;42.804;23.342;2024-03-22T08:47:39;10.70;;;4.23;;
3253;SDS011;1639;42.804;23.342;2024-03-22T08:50:05;13.83;;;5.90;;
3253;SDS011;1639;42.804;23.342;2024-03-22T08:52:31;13.57;;;7.00;;
3253;SDS011;1639;42.804;23.342;2024-03-22T08:54:59;9.17;;;4.80;;
3253;SDS011;1639;42.804;23.342;2024-03-22T08:57:24;17.30;;;5.37;;
3253;SDS011;1639;42.804;23.342;2024-03-22T08:59:49;9.77;;;5.80;;
3253;SDS011;1639;42.804;23.342;2024-03-22T09:02:15;8.33;;;6.30;;
3253;SDS011;1639;42.804;23.342;2024-03-22T09:04:41;12.73;;;5.17;;
3253;SDS011;1639;42.804;23.342;2024-03-22T09:07:06;8.13;;;5.07;;
3253;SDS011;1639;42.804;23.342;2024-03-22T09:09:32;7.40;;;4.17;;
3253;SDS011;1639;42.804;23.342;2024-03-22T09:11:57;5.70;;;3.40;;
3253;SDS011;1639;42.804;23.342;2024-03-22T09:14:23;8.53;;;5.33;;
3253;SDS011;1639;42.804;23.342;2024-03-22T09:16:48;11.10;;;5.00;;
3253;SDS011;1639;42.804;23.342;2024-03-22T09:19:14;8.90;;;4.23;;
3253;SDS011;1639;42.804;23.342;2024-03-22T09:21:39;8.90;;;4.77;;
3253;SDS011;1639;42.804;23.342;2024-03-22T09:24:05;14.93;;;5.60;;
3253;SDS011;1639;42.804;23.342;2024-03-22T09:26:34;7.73;;;4.00;;
3253;SDS011;1639;42.804;23.342;2024-03-22T09:29:00;10.33;;;4.17;;
3253;SDS011;1639;42.804;23.342;2024-03-22T09:31:25;8.70;;;4.30;;
3253;SDS011;1639;42.804;23.342;2024-03-22T09:33:51;8.87;;;5.40;;
3253;SDS011;1639;42.804;23.342;2024-03-22T09:36:16;9.20;;;5.27;;
3253;SDS011;1639;42.804;23.342;2024-03-22T09:38:41;15.67;;;5.50;;
3253;SDS011;1639;42.804;23.342;2024-03-22T09:41:07;11.50;;;5.40;;
3253;SDS011;1639;42.804;23.342;2024-03-22T09:43:32;9.10;;;4.93;;
3253;SDS011;1639;42.804;23.342;2024-03-22T09:45:59;10.13;;;5.03;;
3253;SDS011;1639;42.804;23.342;2024-03-22T09:48:25;7.87;;;4.07;;
3253;SDS011;1639;42.804;23.342;2024-03-22T09:50:51;7.20;;;5.10;;
3253;SDS011;1639;42.804;23.342;2024-03-22T09:53:18;6.80;;;4.47;;
3253;SDS011;1639;42.804;23.342;2024-03-22T09:55:46;7.73;;;4.70;;
3253;SDS011;1639;42.804;23.342;2024-03-22T09:58:13;10.30;;;4.67;;
3253;SDS011;1639;42.804;23.342;2024-03-22T10:00:39;15.23;;;11.53;;
3253;SDS011;1639;42.804;23.342;2024-03-22T10:03:05;13.73;;;5.20;;
3253;SDS011;1639;42.804;23.342;2024-03-22T10:05:31;7.83;;;4.63;;
3253;SDS011;1639;42.804;23.342;2024-03-22T10:07:56;10.20;;;4.97;;
3253;SDS011;1639;42.804;23.342;2024-03-22T10:10:22;16.27;;;14.47;;
3253;SDS011;1639;42.804;23.342;2024-03-22T10:12:48;11.30;;;6.07;;
3253;SDS011;1639;42.804;23.342;2024-03-22T10:15:13;6.10;;;3.70;;
3253;SDS011;1639;42.804;23.342;2024-03-22T10:17:39;6.57;;;4.13;;
3253;SDS011;1639;42.804;23.342;2024-03-22T10:20:05;7.63;;;3.93;;
3253;SDS011;1639;42.804;23.342;2024-03-22T10:22:48;10.63;;;4.60;;
3253;SDS011;1639;42.804;23.342;2024-03-22T10:25:20;6.50;;;3.80;;
3253;SDS011;1639;42.804;23.342;2024-03-22T10:27:45;7.63;;;3.70;;
3253;SDS011;1639;42.804;23.342;2024-03-22T10:30:10;6.13;;;3.70;;
3253;SDS011;1639;42.804;23.342;2024-03-22T10:32:40;7.17;;;4.00;;
3253;SDS011;1639;42.804;23.342;2024-03-22T10:35:06;6.27;;;4.20;;
3253;SDS011;1639;42.804;23.342;2024-03-22T10:37:36;7.90;;;4.00;;
3253;SDS011;1639;42.804;23.342;2024-03-22T10:40:02;10.00;;;4.80;;
3253;SDS011;1639;42.804;23.342;2024-03-22T10:42:35;7.70;;;4.20;;
3253;SDS011;1639;42.804;23.342;2024-03-22T10:45:04;8.97;;;4.47;;
3253;SDS011;1639;42.804;23.342;2024-03-22T10:47:32;6.90;;;3.80;;
3253;SDS011;1639;42.804;23.342;2024-03-22T10:50:08;7.63;;;4.70;;
3253;SDS011;1639;42.804;23.342;2024-03-22T10:52:58;5.60;;;3.90;;
3253;SDS011;1639;42.804;23.342;2024-03-22T10:55:27;14.10;;;4.37;;
3253;SDS011;1639;42.804;23.342;2024-03-22T10:57:58;6.40;;;3.80;;
3253;SDS011;1639;42.804;23.342;2024-03-22T11:00:27;7.87;;;3.90;;
3253;SDS011;1639;42.804;23.342;2024-03-22T11:02:56;8.77;;;4.20;;
3253;SDS011;1639;42.804;23.342;2024-03-22T11:05:22;9.20;;;4.90;;
3253;SDS011;1639;42.804;23.342;2024-03-22T11:07:47;7.27;;;4.33;;
3253;SDS011;1639;42.804;23.342;2024-03-22T11:10:25;13.97;;;4.33;;
3253;SDS011;1639;42.804;23.342;2024-03-22T11:12:53;9.87;;;4.67;;
3253;SDS011;1639;42.804;23.342;2024-03-22T11:15:19;10.10;;;3.50;;
3253;SDS011;1639;42.804;23.342;2024-03-22T11:17:44;8.23;;;4.97;;
3253;SDS011;1639;42.804;23.342;2024-03-22T11:20:09;6.80;;;4.30;;
3253;SDS011;1639;42.804;23.342;2024-03-22T11:22:36;7.03;;;4.50;;
3253;SDS011;1639;42.804;23.342;2024-03-22T11:25:02;9.40;;;5.00;;
3253;SDS011;1639;42.804;23.342;2024-03-22T11:27:28;12.23;;;5.10;;
3253;SDS011;1639;42.804;23.342;2024-03-22T11:29:53;11.30;;;4.67;;
3253;SDS011;1639;42.804;23.342;2024-03-22T11:32:19;8.40;;;4.40;;
3253;SDS011;1639;42.804;23.342;2024-03-22T11:34:45;7.03;;;3.80;;
3253;SDS011;1639;42.804;23.342;2024-03-22T11:37:11;8.37;;;4.67;;
3253;SDS011;1639;42.804;23.342;2024-03-22T11:39:37;10.03;;;4.00;;
3253;SDS011;1639;42.804;23.342;2024-03-22T11:42:06;5.80;;;3.30;;
3253;SDS011;1639;42.804;23.342;2024-03-22T11:44:33;9.63;;;4.40;;
3253;SDS011;1639;42.804;23.342;2024-03-22T11:47:02;5.60;;;3.60;;
3253;SDS011;1639;42.804;23.342;2024-03-22T11:49:28;7.20;;;4.20;;
3253;SDS011;1639;42.804;23.342;2024-03-22T11:51:53;15.67;;;4.90;;
3253;SDS011;1639;42.804;23.342;2024-03-22T11:54:21;9.40;;;5.10;;
3253;SDS011;1639;42.804;23.342;2024-03-22T11:56:46;7.33;;;3.40;;
3253;SDS011;1639;42.804;23.342;2024-03-22T11:59:12;7.10;;;4.03;;
3253;SDS011;1639;42.804;23.342;2024-03-22T12:01:37;6.50;;;3.70;;
3253;SDS011;1639;42.804;23.342;2024-03-22T12:04:03;5.80;;;3.23;;
3253;SDS011;1639;42.804;23.342;2024-03-22T12:06:29;7.70;;;5.13;;
3253;SDS011;1639;42.804;23.342;2024-03-22T12:08:54;7.43;;;3.40;;
3253;SDS011;1639;42.804;23.342;2024-03-22T12:11:20;9.87;;;5.30;;
3253;SDS011;1639;42.804;23.342;2024-03-22T12:13:46;8.10;;;4.70;;
3253;SDS011;1639;42.804;23.342;2024-03-22T12:16:11;9.03;;;5.30;;
3253;SDS011;1639;42.804;23.342;2024-03-22T12:18:37;10.53;;;4.13;;
3253;SDS011;1639;42.804;23.342;2024-03-22T12:21:02;14.13;;;4.53;;
3253;SDS011;1639;42.804;23.342;2024-03-22T12:23:28;7.10;;;4.30;;
3253;SDS011;1639;42.804;23.342;2024-03-22T12:25:53;6.17;;;3.70;;
3253;SDS011;1639;42.804;23.342;2024-03-22T12:28:20;11.97;;;7.53;;
3253;SDS011;1639;42.804;23.342;2024-03-22T12:30:46;8.10;;;6.00;;
3253;SDS011;1639;42.804;23.342;2024-03-22T12:33:12;9.57;;;5.53;;
3253;SDS011;1639;42.804;23.342;2024-03-22T12:35:40;9.87;;;7.97;;
3253;SDS011;1639;42.804;23.342;2024-03-22T12:38:07;9.40;;;4.83;;
3253;SDS011;1639;42.804;23.342;2024-03-22T12:40:35;14.13;;;5.37;;
3253;SDS011;1639;42.804;23.342;2024-03-22T12:43:01;9.53;;;5.70;;
3253;SDS011;1639;42.804;23.342;2024-03-22T12:45:26;6.30;;;4.00;;
3253;SDS011;1639;42.804;23.342;2024-03-22T12:47:51;7.60;;;4.80;;
3253;SDS011;1639;42.804;23.342;2024-03-22T12:50:17;10.23;;;4.57;;
3253;SDS011;1639;42.804;23.342;2024-03-22T12:52:43;7.97;;;4.00;;
3253;SDS011;1639;42.804;23.342;2024-03-22T12:55:09;7.53;;;4.00;;
3253;SDS011;1639;42.804;23.342;2024-03-22T12:57:35;8.63;;;4.40;;
3253;SDS011;1639;42.804;23.342;2024-03-22T13:00:01;5.73;;;3.87;;
3253;SDS011;1639;42.804;23.342;2024-03-22T13:02:27;8.30;;;4.23;;
3253;SDS011;1639;42.804;23.342;2024-03-22T13:04:53;9.73;;;4.13;;
3253;SDS011;1639;42.804;23.342;2024-03-22T13:07:21;7.30;;;4.83;;
3253;SDS011;1639;42.804;23.342;2024-03-22T13:09:46;6.80;;;3.90;;
3253;SDS011;1639;42.804;23.342;2024-03-22T13:12:12;10.67;;;4.40;;
3253;SDS011;1639;42.804;23.342;2024-03-22T13:14:37;8.37;;;4.50;;
3253;SDS011;1639;42.804;23.342;2024-03-22T13:17:03;7.73;;;4.40;;
3253;SDS011;1639;42.804;23.342;2024-03-22T13:19:28;10.60;;;4.77;;
3253;SDS011;1639;42.804;23.342;2024-03-22T13:21:53;8.50;;;4.60;;
3253;SDS011;1639;42.804;23.342;2024-03-22T13:24:19;7.20;;;4.80;;
3253;SDS011;1639;42.804;23.342;2024-03-22T13:26:44;6.57;;;3.80;;
3253;SDS011;1639;42.804;23.342;2024-03-22T13:29:10;7.93;;;4.70;;
3253;SDS011;1639;42.804;23.342;2024-03-22T13:31:36;8.30;;;3.93;;
3253;SDS011;1639;42.804;23.342;2024-03-22T13:34:01;7.50;;;4.00;;
3253;SDS011;1639;42.804;23.342;2024-03-22T13:36:27;6.67;;;4.37;;
3253;SDS011;1639;42.804;23.342;2024-03-22T13:38:53;9.53;;;4.73;;
3253;SDS011;1639;42.804;23.342;2024-03-22T13:41:18;6.40;;;4.30;;
3253;SDS011;1639;42.804;23.342;2024-03-22T13:43:43;9.37;;;4.27;;
3253;SDS011;1639;42.804;23.342;2024-03-22T13:46:09;6.30;;;3.97;;
3253;SDS011;1639;42.804;23.342;2024-03-22T13:48:39;7.93;;;4.60;;
3253;SDS011;1639;42.804;23.342;2024-03-22T13:51:05;7.80;;;3.70;;
3253;SDS011;1639;42.804;23.342;2024-03-22T13:53:30;8.30;;;4.20;;
3253;SDS011;1639;42.804;23.342;2024-03-22T13:55:56;8.43;;;4.63;;
3253;SDS011;1639;42.804;23.342;2024-03-22T13:58:21;7.50;;;3.97;;
3253;SDS011;1639;42.804;23.342;2024-03-22T14:00:47;6.17;;;3.90;;
3253;SDS011;1639;42.804;23.342;2024-03-22T14:03:12;9.60;;;4.27;;
3253;SDS011;1639;42.804;23.342;2024-03-22T14:05:38;8.77;;;6.13;;
3253;SDS011;1639;42.804;23.342;2024-03-22T14:08:03;6.87;;;4.77;;
3253;SDS011;1639;42.804;23.342;2024-03-22T14:10:29;6.43;;;3.87;;
3253;SDS011;1639;42.804;23.342;2024-03-22T14:12:58;8.20;;;4.37;;
3253;SDS011;1639;42.804;23.342;2024-03-22T14:15:23;8.03;;;4.23;;
3253;SDS011;1639;42.804;23.342;2024-03-22T14:17:51;13.90;;;4.97;;
3253;SDS011;1639;42.804;23.342;2024-03-22T14:20:17;7.17;;;3.93;;
3253;SDS011;1639;42.804;23.342;2024-03-22T14:22:43;6.17;;;4.10;;
3253;SDS011;1639;42.804;23.342;2024-03-22T14:25:09;9.77;;;4.13;;
3253;SDS011;1639;42.804;23.342;2024-03-22T14:27:35;10.00;;;4.70;;
3253;SDS011;1639;42.804;23.342;2024-03-22T14:30:02;7.93;;;4.67;;
3253;SDS011;1639;42.804;23.342;2024-03-22T14:32:31;6.33;;;4.23;;
3253;SDS011;1639;42.804;23.342;2024-03-22T14:34:59;7.10;;;3.93;;
3253;SDS011;1639;42.804;23.342;2024-03-22T14:37:25;6.40;;;3.70;;
3253;SDS011;1639;42.804;23.342;2024-03-22T14:39:51;5.90;;;3.47;;
3253;SDS011;1639;42.804;23.342;2024-03-22T14:42:16;12.10;;;5.10;;